Time;durP1;ratioP1;P1;durP2;ratioP2;P2;SDS_P1;SDS_P2;PMS_P1;PMS_P2;Temp;Humidity;BMP_temperature;BMP_pressure;BME280_temperature;BME280_humidity;BME280_pressure;Samples;Min_cycle;Max_cycle;Signal;HPM_P1;HPM_P2
2022/11/12 00:01:22;;;;;;;35.55;10.52;;;;;;;7.50;96.95;99675.09;5141374;23;20521;-92
2022/11/12 00:03:44;;;;;;;40.50;11.73;;;;;;;7.50;96.09;99674.25;5141063;23;20194;-92
2022/11/12 00:06:06;;;;;;;45.75;10.98;;;;;;;7.47;96.50;99679.53;5144255;23;20169;-93
2022/11/12 00:08:29;;;;;;;32.97;10.80;;;;;;;7.46;96.24;99672.66;5140443;23;20177;-91
2022/11/12 00:10:51;;;;;;;29.35;9.23;;;;;;;7.44;95.91;99677.03;5139405;23;20167;-92
2022/11/12 00:13:13;;;;;;;27.02;9.48;;;;;;;7.41;96.34;99669.31;5140575;23;20685;-92
2022/11/12 00:15:35;;;;;;;34.75;10.45;;;;;;;7.40;95.66;99665.06;5139926;23;20178;-93
2022/11/12 00:17:57;;;;;;;26.73;10.38;;;;;;;7.40;95.51;99672.84;5140188;23;20170;-95
2022/11/12 00:20:19;;;;;;;16.13;10.00;;;;;;;7.39;95.94;99673.72;5141411;23;20208;-93
2022/11/12 00:22:40;;;;;;;61.72;13.50;;;;;;;7.38;95.36;99674.63;5141446;23;20189;-94
2022/11/12 00:25:05;;;;;;;39.30;12.52;;;;;;;7.41;95.40;99681.47;5141592;23;20163;-93
2022/11/12 00:27:27;;;;;;;80.43;12.40;;;;;;;7.40;95.92;99675.44;5141729;23;20216;-94
2022/11/12 00:29:48;;;;;;;52.80;13.02;;;;;;;7.37;95.78;99679.88;5142347;23;20669;-94
2022/11/12 00:32:10;;;;;;;30.75;10.02;;;;;;;7.32;95.52;99674.81;5140085;23;20611;-94
2022/11/12 00:34:32;;;;;;;28.50;9.80;;;;;;;7.33;95.54;99678.25;5140611;23;20469;-94
2022/11/12 00:36:54;;;;;;;47.95;12.07;;;;;;;7.31;95.68;99677.47;5140959;23;20177;-94
2022/11/12 00:39:15;;;;;;;33.60;11.30;;;;;;;7.28;95.56;99672.38;5142137;23;20214;-94
2022/11/12 00:41:38;;;;;;;28.00;10.27;;;;;;;7.24;96.31;99676.78;5141650;23;20263;-95
2022/11/12 00:44:00;;;;;;;57.17;13.10;;;;;;;7.22;95.97;99668.19;5143000;23;20181;-93
2022/11/12 00:46:22;;;;;;;51.40;12.02;;;;;;;7.20;96.27;99677.78;5141461;23;20220;-94
2022/11/12 00:48:44;;;;;;;27.10;10.80;;;;;;;7.15;95.96;99671.84;5143127;23;20170;-95
2022/11/12 00:51:06;;;;;;;17.67;9.55;;;;;;;7.12;96.36;99678.88;5140703;23;20170;-95
2022/11/12 00:53:28;;;;;;;42.03;11.55;;;;;;;7.08;95.36;99674.69;5142521;23;20177;-95
2022/11/12 00:55:50;;;;;;;33.88;11.15;;;;;;;7.05;95.93;99679.94;5142217;23;20260;-93
2022/11/12 00:58:13;;;;;;;32.13;10.30;;;;;;;7.02;95.73;99677.44;5141472;23;20178;-94
2022/11/12 01:00:35;;;;;;;23.75;9.18;;;;;;;6.98;94.73;99681.03;5140115;23;20190;-93
2022/11/12 01:02:56;;;;;;;23.70;10.32;;;;;;;6.93;95.72;99687.25;5140164;23;20181;-94
2022/11/12 01:05:19;;;;;;;47.13;12.43;;;;;;;6.85;94.71;99682.28;5139869;23;20184;-94
2022/11/12 01:07:41;;;;;;;16.30;8.90;;;;;;;6.76;93.85;99681.69;5142297;23;20182;-94
2022/11/12 01:10:03;;;;;;;21.58;9.50;;;;;;;6.68;93.49;99679.31;5140005;23;20180;-95
2022/11/12 01:12:25;;;;;;;15.77;10.48;;;;;;;6.63;94.15;99675.13;5140748;23;20201;-94
2022/11/12 01:14:48;;;;;;;16.73;10.13;;;;;;;6.61;93.52;99674.34;5139603;23;20188;-95
2022/11/12 01:17:10;;;;;;;11.23;8.95;;;;;;;6.62;93.46;99670.84;5140865;23;20261;-95
2022/11/12 01:19:32;;;;;;;17.83;10.45;;;;;;;6.62;93.85;99673.44;5140748;23;20201;-94
2022/11/12 01:21:54;;;;;;;9.85;8.80;;;;;;;6.61;93.55;99662.25;5140475;23;20579;-95
2022/11/12 01:24:16;;;;;;;12.18;8.98;;;;;;;6.60;94.07;99664.88;5140364;23;20212;-95
2022/11/12 01:26:38;;;;;;;11.63;8.93;;;;;;;6.58;94.32;99662.31;5140710;23;20401;-93
2022/11/12 01:29:00;;;;;;;21.13;9.50;;;;;;;6.55;93.20;99656.34;5142145;23;20176;-94
2022/11/12 01:31:25;;;;;;;15.32;8.38;;;;;;;6.53;92.94;99652.13;5140850;23;20191;-94
2022/11/12 01:33:48;;;;;;;22.83;7.80;;;;;;;6.49;93.24;99646.16;5141339;23;20723;-93
2022/11/12 01:36:11;;;;;;;16.15;7.72;;;;;;;6.47;93.92;99650.53;5140723;23;20267;-96
2022/11/12 01:38:34;;;;;;;14.32;7.68;;;;;;;6.43;93.30;99637.72;5142216;23;20172;-94
2022/11/12 01:40:55;;;;;;;7.78;6.30;;;;;;;6.38;93.37;99627.47;5141954;23;20201;-96
2022/11/12 01:43:17;;;;;;;23.45;8.07;;;;;;;6.39;92.78;99639.53;5140421;23;20199;-94
2022/11/12 01:45:40;;;;;;;27.15;8.80;;;;;;;6.39;93.98;99634.38;5140902;23;20240;-95
2022/11/12 01:48:03;;;;;;;21.88;8.65;;;;;;;6.42;94.23;99634.28;5140430;23;20248;-93
2022/11/12 01:50:28;;;;;;;29.58;8.30;;;;;;;6.46;94.56;99632.44;5142281;23;20222;-93
2022/11/12 01:52:53;;;;;;;33.15;8.35;;;;;;;6.46;94.10;99633.28;5142774;23;20194;-95
2022/11/12 01:55:18;;;;;;;31.40;8.65;;;;;;;6.44;93.98;99626.47;5142900;23;20178;-95
2022/11/12 01:57:43;;;;;;;41.95;9.15;;;;;;;6.42;94.01;99633.41;5142175;23;20286;-96
2022/11/12 02:00:08;;;;;;;53.28;10.30;;;;;;;6.42;94.33;99623.91;5143925;23;20234;-94
2022/11/12 02:02:30;;;;;;;33.50;9.20;;;;;;;6.41;95.21;99624.78;5139226;22;20167;-95
2022/11/12 02:04:54;;;;;;;47.63;9.25;;;;;;;6.41;94.93;99627.38;5141556;23;20201;-95
2022/11/12 02:07:16;;;;;;;48.78;8.80;;;;;;;6.42;95.60;99631.69;5140619;23;20638;-94
2022/11/12 02:09:38;;;;;;;46.35;11.45;;;;;;;6.43;95.27;99625.59;5142824;23;20530;-94
2022/11/12 02:12:00;;;;;;;40.60;10.07;;;;;;;6.41;95.01;99627.38;5141478;23;20178;-96
2022/11/12 02:14:21;;;;;;;41.70;9.65;;;;;;;6.38;95.35;99626.63;5142561;23;20196;-93
2022/11/12 02:16:44;;;;;;;50.90;11.68;;;;;;;6.35;94.75;99630.16;5143135;22;20178;-95
2022/11/12 02:19:10;;;;;;;42.20;11.40;;;;;;;6.33;95.05;99625.88;5144232;23;20171;-95
2022/11/12 02:21:42;;;;;;;55.13;10.50;;;;;;;6.31;95.12;99625.91;5146183;23;20198;-96
2022/11/12 02:24:06;;;;;;;33.67;9.68;;;;;;;6.29;95.60;99622.53;5147334;23;20176;-95
2022/11/12 02:26:30;;;;;;;43.35;10.93;;;;;;;6.28;94.70;99618.22;5145483;23;20201;-94
2022/11/12 02:28:52;;;;;;;36.65;9.40;;;;;;;6.23;94.93;99622.69;5146481;23;20182;-95
2022/11/12 02:31:24;;;;;;;31.80;10.13;;;;;;;6.24;95.43;99618.34;5147651;23;20203;-96
2022/11/12 02:45:46;;;;;;;50.30;9.98;;;;;;;5.90;95.25;99612.38;5153442;22;20195;-95
2022/11/12 02:48:14;;;;;;;70.15;10.48;;;;;;;5.91;95.23;99611.50;5145792;23;20262;-95
2022/11/12 02:50:40;;;;;;;64.68;11.77;;;;;;;5.95;96.78;99620.03;5149868;23;20168;-95
2022/11/12 02:53:04;;;;;;;100.97;14.18;;;;;;;5.93;96.26;99619.22;5149320;23;20175;-96
2022/11/12 02:55:26;;;;;;;93.38;13.48;;;;;;;5.98;96.66;99619.94;5125726;23;20206;-96
2022/11/12 02:57:49;;;;;;;71.68;11.40;;;;;;;5.97;96.55;99623.41;5120685;23;20672;-96
2022/11/12 03:00:14;;;;;;;83.35;11.43;;;;;;;5.93;96.54;99611.47;5147713;23;20257;-96
2022/11/12 03:02:41;;;;;;;90.78;11.82;;;;;;;5.94;97.25;99614.00;5151291;23;20273;-96
2022/11/12 03:05:03;;;;;;;60.63;10.02;;;;;;;5.97;97.41;99610.47;5097156;23;20175;-96
2022/11/12 03:07:25;;;;;;;45.80;9.65;;;;;;;6.00;97.20;99620.75;5099785;23;20182;-96
2022/11/12 03:09:53;;;;;;;37.13;9.30;;;;;;;6.00;96.81;99619.03;5100946;23;20193;-96
2022/11/12 03:12:16;;;;;;;52.05;9.27;;;;;;;6.03;96.59;99620.66;5098228;23;20194;-95
2022/11/12 03:14:38;;;;;;;30.38;7.43;;;;;;;5.99;96.00;99617.31;5096800;23;20524;-94
2022/11/12 03:17:01;;;;;;;40.97;7.80;;;;;;;6.00;96.53;99626.78;5093401;23;20178;-96
2022/11/12 03:19:25;;;;;;;35.95;8.18;;;;;;;5.96;95.56;99616.56;5101382;23;20652;-96
2022/11/12 03:21:47;;;;;;;34.80;8.07;;;;;;;5.93;95.60;99621.81;5100395;23;20191;-96
2022/11/12 03:24:11;;;;;;;30.90;7.78;;;;;;;5.94;95.63;99616.59;5102427;23;20215;-96
2022/11/12 03:26:34;;;;;;;76.75;10.82;;;;;;;5.98;95.37;99625.13;5103852;23;20165;-94
2022/11/12 03:28:58;;;;;;;15.05;6.53;;;;;;;5.95;95.30;99620.03;5097580;23;20176;-96
2022/11/12 03:31:20;;;;;;;17.73;6.50;;;;;;;5.94;95.64;99615.72;5099455;23;20161;-96
2022/11/12 03:33:59;;;;;;;40.00;8.05;;;;;;;5.95;95.21;99609.66;5103824;23;20177;-96
2022/11/12 03:36:23;;;;;;;33.97;6.90;;;;;;;5.99;95.90;99608.72;5100555;23;20175;-96
2022/11/12 03:38:44;;;;;;;33.72;7.43;;;;;;;5.98;95.43;99594.06;5103021;23;20209;-96
2022/11/12 03:41:07;;;;;;;41.08;8.55;;;;;;;5.99;95.38;99611.31;5101450;23;20204;-95
2022/11/12 03:43:56;;;;;;;27.50;8.02;;;;;;;5.99;95.70;99611.31;5127401;23;20178;-95
2022/11/12 03:46:18;;;;;;;48.00;8.35;;;;;;;5.98;95.19;99609.59;5102400;23;20191;-96
2022/11/12 03:48:41;;;;;;;22.52;6.40;;;;;;;5.97;95.29;99621.69;5104370;23;20169;-96
2022/11/12 03:51:04;;;;;;;36.20;7.30;;;;;;;5.98;95.16;99625.13;5105975;23;20167;-95
2022/11/12 03:53:28;;;;;;;30.13;7.47;;;;;;;5.96;94.70;99616.56;5103694;23;20173;-94
2022/11/12 03:55:51;;;;;;;29.33;7.10;;;;;;;5.97;94.59;99615.66;5104010;23;20240;-94
2022/11/12 03:58:14;;;;;;;32.75;6.78;;;;;;;5.96;95.32;99613.97;5108234;23;20166;-95
2022/11/12 04:00:37;;;;;;;12.32;4.88;;;;;;;5.97;95.82;99607.88;5104482;23;20179;-94
2022/11/12 04:03:04;;;;;;;21.45;6.40;;;;;;;6.01;95.91;99606.91;5085773;23;20168;-96
2022/11/12 04:09:03;;;;;;;16.48;5.03;;;;;;;6.09;95.60;99598.91;5105651;23;20290;-95
2022/11/12 04:11:29;;;;;;;16.77;4.97;;;;;;;6.06;95.16;99592.97;5105913;23;20174;-94
2022/11/12 04:14:07;;;;;;;14.35;6.10;;;;;;;6.03;94.24;99594.78;5107677;23;20742;-95
2022/11/12 04:22:11;;;;;;;4.82;4.32;;;;;;;6.03;94.78;99607.72;5108158;23;20185;-95
2022/11/12 04:27:28;;;;;;;5.65;4.88;;;;;;;6.10;95.33;99610.13;5106701;23;20959;-96
2022/11/12 04:30:18;;;;;;;5.35;4.57;;;;;;;6.16;95.50;99607.38;5131780;23;20182;-93
2022/11/12 04:32:49;;;;;;;8.15;4.60;;;;;;;6.18;95.78;99611.63;5132686;23;20157;-94
2022/11/12 04:35:23;;;;;;;5.28;4.30;;;;;;;6.19;96.50;99602.97;5108174;23;20180;-96
2022/11/12 04:52:07;;;;;;;4.70;4.20;;;;;;;6.19;94.29;99610.75;5154316;23;20206;-95
2022/11/12 04:54:31;;;;;;;4.68;4.25;;;;;;;6.22;94.55;99604.59;5111584;23;20571;-96
2022/11/12 04:56:57;;;;;;;5.63;4.43;;;;;;;6.19;94.11;99604.69;5151362;23;20195;-93
2022/11/12 04:59:27;;;;;;;5.20;4.47;;;;;;;6.12;93.85;99605.75;5155113;23;20632;-94
2022/11/12 05:13:27;;;;;;;4.40;3.97;;;;;;;5.99;94.13;99621.66;5149837;23;20243;-93
2022/11/12 05:15:49;;;;;;;4.85;4.35;;;;;;;5.99;94.57;99621.66;5123055;23;20195;-96
2022/11/12 05:18:12;;;;;;;5.32;4.82;;;;;;;5.99;94.64;99606.13;5147023;23;20235;-96
2022/11/12 05:20:38;;;;;;;6.35;4.03;;;;;;;6.00;94.90;99621.63;5145769;23;20206;-94
2022/11/12 05:23:00;;;;;;;5.05;4.50;;;;;;;6.00;95.33;99619.03;5145953;23;20214;-95
2022/11/12 05:25:29;;;;;;;5.57;5.07;;;;;;;5.97;95.38;99618.22;5146742;23;20171;-96
2022/11/12 05:27:51;;;;;;;5.15;4.63;;;;;;;6.01;95.52;99617.28;5149913;23;20696;-95
2022/11/12 05:30:16;;;;;;;6.53;4.60;;;;;;;6.02;95.18;99621.59;5145989;23;20688;-96
2022/11/12 05:32:38;;;;;;;4.88;3.90;;;;;;;6.00;95.13;99620.75;5146384;23;20178;-95
2022/11/12 05:35:00;;;;;;;5.35;4.80;;;;;;;5.98;94.79;99627.72;5150828;23;20205;-94
2022/11/12 05:37:23;;;;;;;5.68;5.05;;;;;;;5.94;94.86;99610.53;5146417;23;20224;-94
2022/11/12 05:39:47;;;;;;;5.43;4.93;;;;;;;5.99;94.79;99625.09;5130428;23;20167;-96
2022/11/12 05:42:38;;;;;;;4.90;4.40;;;;;;;6.01;94.90;99622.47;5149905;23;20195;-95
2022/11/12 05:45:00;;;;;;;5.18;4.68;;;;;;;6.00;95.51;99628.50;5148308;23;20154;-96
2022/11/12 05:47:24;;;;;;;5.22;4.70;;;;;;;5.99;94.52;99622.50;5127094;23;20386;-96
2022/11/12 05:49:51;;;;;;;7.57;4.70;;;;;;;5.99;94.85;99626.84;5126958;23;20174;-93
2022/11/12 05:52:20;;;;;;;6.20;4.40;;;;;;;6.03;94.82;99631.03;5138435;23;20181;-94
2022/11/12 05:54:43;;;;;;;8.32;4.93;;;;;;;6.02;94.94;99629.34;5126373;23;20164;-95
2022/11/12 05:57:09;;;;;;;4.38;3.97;;;;;;;6.00;94.31;99626.78;5150573;23;20180;-96
2022/11/12 05:59:32;;;;;;;6.60;4.75;;;;;;;5.99;94.69;99632.00;5131359;23;20161;-95
2022/11/12 06:01:56;;;;;;;4.90;4.43;;;;;;;5.99;94.27;99625.09;5127240;23;20207;-94
2022/11/12 06:04:25;;;;;;;9.52;4.97;;;;;;;6.00;94.80;99642.34;5173315;23;20201;-94
2022/11/12 06:23:22;;;;;;;5.18;4.50;;;;;;;5.89;93.41;99641.72;5152651;23;20256;-95
2022/11/12 06:28:31;;;;;;;5.15;4.47;;;;;;;5.85;93.22;99644.44;5152634;23;20193;-96
2022/11/12 06:33:38;;;;;;;8.50;5.30;;;;;;;5.82;94.61;99647.13;5150261;23;20494;-96
2022/11/12 06:36:17;;;;;;;5.60;4.80;;;;;;;5.89;94.56;99653.84;5123500;23;20791;-93
2022/11/12 06:38:41;;;;;;;5.85;4.95;;;;;;;5.89;94.72;99648.66;5145317;23;20503;-96
2022/11/12 06:41:27;;;;;;;6.25;4.60;;;;;;;5.92;94.66;99641.66;5152212;23;20180;-96
2022/11/12 06:43:51;;;;;;;4.85;4.35;;;;;;;5.96;95.01;99650.22;5152695;23;20195;-96
2022/11/12 06:46:19;;;;;;;5.95;5.20;;;;;;;5.99;94.27;99652.72;5156835;23;20352;-96
2022/11/12 06:49:33;;;;;;;5.50;5.00;;;;;;;5.95;93.99;99653.69;5154134;23;20161;-94
2022/11/12 06:57:05;;;;;;;6.22;5.00;;;;;;;5.99;94.03;99647.53;5143816;22;20331;-96
2022/11/12 06:59:30;;;;;;;5.55;4.70;;;;;;;6.01;93.81;99640.59;5129897;23;20176;-95
2022/11/12 07:02:05;;;;;;;5.88;5.35;;;;;;;6.07;94.22;99645.59;5154737;23;20167;-95
2022/11/12 07:10:35;;;;;;;6.60;5.15;;;;;;;6.23;93.79;99634.81;5158098;23;20663;-92
2022/11/12 07:27:01;;;;;;;6.25;5.07;;;;;;;6.97;93.23;99650.81;5155222;23;20189;-93
2022/11/12 07:50:19;;;;;;;6.75;5.85;;;;;;;8.09;93.07;99667.09;5157161;23;20333;-93
2022/11/12 07:52:59;;;;;;;16.92;14.02;;;;;;;8.31;92.40;99683.69;5158336;23;20224;-95
2022/11/12 07:55:58;;;;;;;7.88;6.15;;;;;;;8.42;91.78;99671.19;5131162;23;20170;-95
2022/11/12 07:58:23;;;;;;;6.22;5.60;;;;;;;8.57;92.22;99668.06;5152002;23;20207;-94
2022/11/12 08:00:46;;;;;;;7.78;6.30;;;;;;;8.68;91.61;99673.72;5126271;23;20155;-96
2022/11/12 08:03:11;;;;;;;6.50;5.68;;;;;;;8.87;92.41;99679.94;5156159;23;20265;-96
2022/11/12 08:06:31;;;;;;;8.07;6.50;;;;;;;9.00;91.21;99675.06;5157590;23;20465;-96
2022/11/12 08:09:03;;;;;;;11.10;8.73;;;;;;;9.19;90.58;99683.91;5165256;23;20173;-93
2022/11/12 08:11:25;;;;;;;12.68;11.55;;;;;;;9.28;89.27;99685.34;5140262;23;20188;-91
2022/11/12 08:13:48;;;;;;;14.05;12.73;;;;;;;9.38;88.86;99685.78;5140802;23;20170;-90
2022/11/12 08:16:09;;;;;;;11.52;10.30;;;;;;;9.47;88.90;99689.75;5140658;23;20209;-90
2022/11/12 08:18:32;;;;;;;9.77;7.55;;;;;;;9.54;89.75;99688.63;5140830;23;20562;-91
2022/11/12 08:20:59;;;;;;;8.13;7.32;;;;;;;9.58;90.32;99682.41;5140076;23;20178;-91
2022/11/12 08:23:21;;;;;;;8.13;7.43;;;;;;;9.60;89.50;99683.19;5139793;23;20542;-92
2022/11/12 08:25:44;;;;;;;8.98;7.47;;;;;;;9.65;89.64;99689.91;5139717;23;20189;-91
2022/11/12 08:28:06;;;;;;;8.73;7.55;;;;;;;9.73;91.38;99681.81;5140457;23;20499;-90
2022/11/12 08:30:29;;;;;;;8.32;7.40;;;;;;;9.79;90.54;99681.53;5140504;23;20169;-91
2022/11/12 08:32:56;;;;;;;10.60;8.60;;;;;;;9.80;90.37;99686.69;5140593;23;20177;-90
2022/11/12 08:35:17;;;;;;;15.95;11.57;;;;;;;9.84;90.34;99677.00;5142025;23;20178;-90
2022/11/12 08:37:39;;;;;;;20.33;14.27;;;;;;;9.89;90.21;99674.16;5140012;23;20673;-89
2022/11/12 08:40:01;;;;;;;15.73;12.32;;;;;;;9.96;89.98;99674.78;5139298;23;20249;-90
2022/11/12 08:42:24;;;;;;;11.10;9.10;;;;;;;10.05;91.18;99674.41;5138272;23;20181;-91
2022/11/12 08:44:46;;;;;;;9.38;8.43;;;;;;;10.18;91.52;99678.19;5137097;23;20198;-91
2022/11/12 08:47:08;;;;;;;9.60;8.60;;;;;;;10.25;90.83;99683.09;5141282;22;20178;-86
2022/11/12 08:49:30;;;;;;;10.73;9.20;;;;;;;10.32;90.53;99674.94;5140161;23;20565;-87
2022/11/12 08:51:51;;;;;;;12.30;8.55;;;;;;;10.38;90.68;99668.63;5140078;23;20178;-88
2022/11/12 08:54:13;;;;;;;9.30;8.40;;;;;;;10.42;89.55;99670.22;5138690;23;20240;-89
2022/11/12 08:56:35;;;;;;;9.45;8.55;;;;;;;10.48;91.14;99667.34;5139509;23;20174;-88
2022/11/12 08:58:58;;;;;;;15.95;11.95;;;;;;;10.53;91.80;99665.38;5138868;23;20550;-87
2022/11/12 09:01:24;;;;;;;14.57;10.40;;;;;;;10.58;89.88;99672.06;5141247;23;20170;-87
2022/11/12 09:03:45;;;;;;;12.57;10.00;;;;;;;10.72;90.03;99677.56;5138953;23;20537;-88
2022/11/12 09:06:07;;;;;;;11.43;9.07;;;;;;;10.86;90.70;99670.81;5139614;23;20166;-88
2022/11/12 09:08:29;;;;;;;9.83;8.20;;;;;;;11.03;90.83;99663.06;5138028;23;20178;-89
2022/11/12 09:10:51;;;;;;;19.40;9.35;;;;;;;10.99;88.99;99661.53;5135256;23;20973;-90
2022/11/12 09:13:14;;;;;;;8.73;7.03;;;;;;;10.87;87.77;99669.06;5137178;23;20265;-89
2022/11/12 09:15:37;;;;;;;10.13;7.40;;;;;;;10.85;90.17;99670.88;5135355;23;20577;-89
2022/11/12 09:18:00;;;;;;;9.85;7.95;;;;;;;11.01;91.58;99670.13;5137629;23;20177;-89
2022/11/12 09:20:22;;;;;;;8.23;7.30;;;;;;;11.04;89.45;99672.59;5137923;23;20182;-91
2022/11/12 09:22:44;;;;;;;11.90;7.60;;;;;;;10.99;90.82;99666.75;5142624;23;20577;-90
2022/11/12 09:25:07;;;;;;;10.50;7.30;;;;;;;11.02;90.00;99664.00;5139431;23;20635;-89
2022/11/12 09:27:29;;;;;;;8.00;7.10;;;;;;;11.07;90.45;99662.03;5138222;23;20569;-88
2022/11/12 09:29:51;;;;;;;9.27;7.77;;;;;;;11.15;90.63;99665.13;5137234;23;20589;-88
2022/11/12 09:32:14;;;;;;;9.07;8.10;;;;;;;11.15;90.46;99670.34;5139234;23;20565;-88
2022/11/12 09:34:36;;;;;;;9.00;7.27;;;;;;;11.19;90.98;99665.84;5138479;23;20561;-89
2022/11/12 09:36:58;;;;;;;8.40;7.50;;;;;;;11.19;91.12;99664.09;5138298;23;20597;-89
2022/11/12 09:39:19;;;;;;;8.73;7.83;;;;;;;11.21;90.29;99664.84;5135590;23;20561;-88
2022/11/12 09:41:43;;;;;;;10.80;7.97;;;;;;;11.27;90.44;99666.34;5138434;23;21203;-89
2022/11/12 09:44:09;;;;;;;8.80;7.80;;;;;;;11.29;91.07;99660.16;5138946;23;20611;-90
2022/11/12 09:46:36;;;;;;;7.80;7.00;;;;;;;11.34;91.80;99661.59;5138605;23;21113;-89
2022/11/12 09:49:04;;;;;;;8.57;7.53;;;;;;;11.45;91.37;99661.09;5139478;23;20549;-90
2022/11/12 09:51:27;;;;;;;10.53;7.67;;;;;;;11.51;91.72;99655.63;5138417;23;20627;-90
2022/11/12 09:53:55;;;;;;;9.90;8.23;;;;;;;11.61;91.15;99662.13;5139558;22;20585;-87
2022/11/12 09:56:19;;;;;;;9.48;8.50;;;;;;;11.66;91.32;99663.59;5136925;23;20651;-89
2022/11/12 09:58:40;;;;;;;10.10;9.10;;;;;;;11.68;89.71;99659.16;5133887;23;20186;-89
2022/11/12 10:01:10;;;;;;;14.30;8.97;;;;;;;11.67;90.82;99661.84;5133290;23;21235;-89
2022/11/12 10:03:37;;;;;;;9.93;8.93;;;;;;;11.69;89.77;99654.75;5136725;23;20609;-89
2022/11/12 10:06:02;;;;;;;12.70;10.37;;;;;;;11.73;91.05;99656.28;5138300;23;21112;-89
2022/11/12 10:08:38;;;;;;;10.33;8.47;;;;;;;11.76;91.25;99655.25;5136868;23;20574;-89
2022/11/12 10:11:07;;;;;;;8.70;7.43;;;;;;;11.82;91.01;99651.50;5137394;23;20577;-89
2022/11/12 10:13:39;;;;;;;9.40;8.40;;;;;;;11.83;90.68;99654.03;5137892;23;20576;-88
2022/11/12 10:19:05;;;;;;;10.07;7.93;;;;;;;11.91;90.17;99653.66;5137637;23;20569;-89
2022/11/12 10:21:34;;;;;;;9.77;8.43;;;;;;;11.96;90.82;99651.66;5138248;23;20580;-88
2022/11/12 10:23:58;;;;;;;9.93;7.83;;;;;;;12.00;90.77;99646.22;5137342;23;20591;-89
2022/11/12 10:26:21;;;;;;;10.30;9.20;;;;;;;12.04;90.63;99650.38;5137632;23;20569;-88
2022/11/12 10:28:46;;;;;;;11.93;8.60;;;;;;;12.14;90.66;99648.97;5134596;23;20671;-89
2022/11/12 10:31:12;;;;;;;8.77;7.87;;;;;;;12.19;90.29;99644.34;5137638;23;20620;-89
2022/11/12 10:33:33;;;;;;;10.30;8.80;;;;;;;12.27;90.24;99644.84;5138666;23;20624;-89
2022/11/12 10:35:56;;;;;;;9.97;8.67;;;;;;;12.36;91.38;99647.00;5139465;23;21168;-89
2022/11/12 10:38:23;;;;;;;11.07;9.10;;;;;;;12.40;91.49;99649.38;5140394;23;20585;-89
2022/11/12 10:40:45;;;;;;;11.00;9.90;;;;;;;12.45;91.33;99639.53;5141481;23;20605;-89
2022/11/12 10:43:21;;;;;;;12.40;10.13;;;;;;;12.52;90.26;99640.88;5139814;23;20639;-89
2022/11/12 10:45:42;;;;;;;13.50;10.03;;;;;;;12.57;90.52;99638.91;5136369;23;20943;-88
2022/11/12 10:48:05;;;;;;;12.60;11.30;;;;;;;12.66;90.58;99641.03;5137765;23;20624;-89
2022/11/12 10:50:30;;;;;;;13.80;11.97;;;;;;;12.72;90.88;99636.31;5136978;23;20675;-89
2022/11/12 10:52:56;;;;;;;11.63;10.40;;;;;;;12.76;90.64;99643.09;5135915;22;21169;-89
2022/11/12 10:55:21;;;;;;;13.40;12.00;;;;;;;12.82;89.04;99642.81;5133559;23;20680;-89
2022/11/12 10:57:42;;;;;;;11.60;10.40;;;;;;;12.85;88.25;99637.41;5139019;22;20624;-89
2022/11/12 11:00:16;;;;;;;12.30;10.60;;;;;;;12.88;87.74;99637.22;5138803;23;20910;-88
2022/11/12 11:02:46;;;;;;;12.40;10.73;;;;;;;12.93;88.77;99637.84;5137252;23;20577;-89
2022/11/12 11:05:27;;;;;;;11.50;10.40;;;;;;;13.00;88.26;99636.56;5136786;23;20601;-89
2022/11/12 11:07:50;;;;;;;11.47;10.07;;;;;;;13.07;88.35;99632.72;5138630;23;21223;-89
2022/11/12 11:10:25;;;;;;;11.00;9.60;;;;;;;13.10;87.72;99632.56;5136164;23;20577;-89
2022/11/12 11:12:47;;;;;;;12.63;9.37;;;;;;;13.16;87.16;99629.59;5134710;23;20588;-88
2022/11/12 11:15:19;;;;;;;10.63;9.60;;;;;;;13.18;87.91;99628.59;5136579;23;20891;-88
2022/11/12 11:17:41;;;;;;;9.40;8.33;;;;;;;13.24;87.07;99625.66;5136411;23;20612;-87
2022/11/12 11:20:04;;;;;;;9.30;7.33;;;;;;;13.25;86.63;99622.06;5138720;22;20668;-88
2022/11/12 11:22:32;;;;;;;9.20;8.03;;;;;;;13.23;85.15;99618.72;5136582;23;20590;-89
2022/11/12 11:25:16;;;;;;;9.30;8.20;;;;;;;13.33;86.24;99619.03;5135257;23;20598;-88
2022/11/12 11:27:42;;;;;;;9.53;8.33;;;;;;;13.35;85.31;99617.16;5136365;23;20577;-88
2022/11/12 11:30:09;;;;;;;10.33;8.37;;;;;;;13.40;85.25;99615.16;5137890;22;20668;-88
2022/11/12 11:33:16;;;;;;;11.20;8.50;;;;;;;13.41;84.47;99611.59;5138251;23;20577;-88
2022/11/12 11:35:52;;;;;;;9.43;8.43;;;;;;;13.44;84.87;99612.28;5062611;23;21019;-89
2022/11/12 11:38:23;;;;;;;9.40;8.50;;;;;;;13.48;84.35;99605.09;5138529;23;20582;-88
2022/11/12 11:40:50;;;;;;;10.85;9.75;;;;;;;13.48;84.54;99607.72;5137834;23;20744;-89
2022/11/12 11:43:28;;;;;;;11.63;8.80;;;;;;;13.56;85.12;99606.38;5138901;23;20191;-88
2022/11/12 11:46:07;;;;;;;11.73;8.73;;;;;;;13.66;85.39;99610.16;5136514;23;20605;-88
2022/11/12 11:48:36;;;;;;;9.70;8.70;;;;;;;13.71;85.31;99600.22;5136391;23;20578;-88
2022/11/12 11:51:01;;;;;;;10.50;9.23;;;;;;;13.74;86.37;99586.94;5137355;23;21128;-88
2022/11/12 11:53:26;;;;;;;11.37;9.20;;;;;;;13.78;85.73;99591.94;5138616;23;20598;-88
2022/11/12 11:55:54;;;;;;;11.60;9.40;;;;;;;13.82;86.22;99593.47;5137630;23;20661;-89
2022/11/12 11:58:33;;;;;;;10.70;8.60;;;;;;;13.90;86.26;99583.34;5137120;23;21122;-89
2022/11/12 12:01:00;;;;;;;9.20;8.20;;;;;;;13.93;85.94;99584.97;5135887;23;20620;-89
2022/11/12 12:03:25;;;;;;;9.10;8.20;;;;;;;13.93;86.43;99580.56;5136520;22;20609;-93
2022/11/12 12:06:18;;;;;;;9.47;8.47;;;;;;;13.94;86.17;99581.44;5134362;23;20629;-86
2022/11/12 12:08:52;;;;;;;16.67;12.93;;;;;;;13.94;86.52;99573.56;5137350;23;20644;-86
2022/11/12 12:11:21;;;;;;;13.10;9.00;;;;;;;13.90;85.70;99574.66;5136451;23;20677;-86
2022/11/12 12:14:01;;;;;;;11.53;9.90;;;;;;;13.96;86.41;99575.13;5137996;23;20582;-88
2022/11/12 12:16:33;;;;;;;22.17;14.57;;;;;;;13.99;85.95;99574.97;5138519;23;20565;-87
2022/11/12 12:19:05;;;;;;;15.43;11.20;;;;;;;14.01;86.02;99567.88;5140559;22;20580;-87
2022/11/12 12:21:30;;;;;;;10.70;9.60;;;;;;;14.08;85.54;99573.63;5135585;23;20732;-87
2022/11/12 12:23:55;;;;;;;9.00;8.10;;;;;;;14.15;85.08;99567.94;5142912;22;21113;-87
2022/11/12 12:26:19;;;;;;;9.23;8.10;;;;;;;14.22;85.04;99569.22;5141032;23;20682;-88
2022/11/12 12:28:45;;;;;;;10.37;8.40;;;;;;;14.25;84.25;99571.69;5143897;23;21488;-88
2022/11/12 12:31:13;;;;;;;10.57;8.20;;;;;;;14.27;84.77;99565.41;5141203;23;20594;-88
2022/11/12 12:33:39;;;;;;;8.80;7.73;;;;;;;14.31;85.97;99564.31;5143659;23;20595;-87
2022/11/12 12:36:06;;;;;;;11.67;8.00;;;;;;;14.31;85.40;99556.44;5143712;23;21088;-87
2022/11/12 12:38:33;;;;;;;9.97;8.77;;;;;;;14.32;86.35;99557.25;5143635;23;20572;-88
2022/11/12 12:41:00;;;;;;;8.70;7.60;;;;;;;14.34;85.71;99555.38;5140079;23;20586;-88
2022/11/12 12:43:28;;;;;;;10.40;7.63;;;;;;;14.35;85.95;99552.66;5136909;23;20578;-88
2022/11/12 12:45:50;;;;;;;8.60;7.70;;;;;;;14.38;85.88;99535.91;5135663;23;20612;-88
2022/11/12 12:48:17;;;;;;;36.10;9.80;;;;;;;14.43;84.39;99539.06;5137692;23;20583;-88
2022/11/12 12:50:40;;;;;;;9.90;7.97;;;;;;;14.40;84.27;99534.88;5136277;23;20588;-88
2022/11/12 12:53:04;;;;;;;11.70;8.60;;;;;;;14.43;85.51;99537.28;5136016;23;21141;-88
2022/11/12 12:55:37;;;;;;;14.37;10.53;;;;;;;14.48;85.29;99537.88;5136976;23;20761;-88
2022/11/12 12:57:59;;;;;;;15.77;8.63;;;;;;;14.52;85.69;99530.66;5136907;23;21203;-87
2022/11/12 13:00:26;;;;;;;35.40;9.00;;;;;;;14.53;83.66;99530.56;5137529;23;20586;-88
2022/11/12 13:02:47;;;;;;;19.80;7.87;;;;;;;14.59;84.98;99521.47;5135618;23;20575;-88
2022/11/12 13:05:25;;;;;;;7.80;6.70;;;;;;;14.61;83.34;99529.16;5136877;23;20571;-88
2022/11/12 13:07:48;;;;;;;8.73;7.27;;;;;;;14.61;84.17;99526.53;5136212;23;20583;-88
2022/11/12 13:10:46;;;;;;;10.77;7.50;;;;;;;14.67;84.32;99512.16;5137575;23;20627;-88
2022/11/12 13:13:27;;;;;;;8.50;7.23;;;;;;;14.66;84.07;99518.38;5036033;23;20629;-88
2022/11/12 13:15:54;;;;;;;9.10;7.40;;;;;;;14.68;82.74;99521.75;5040382;23;20606;-88
2022/11/12 13:18:56;;;;;;;7.90;6.97;;;;;;;14.73;84.56;99519.66;5104902;23;20594;-88
2022/11/12 13:21:22;;;;;;;9.33;8.40;;;;;;;14.76;84.83;99514.22;5165362;23;20587;-88
2022/11/12 13:26:46;;;;;;;9.70;8.80;;;;;;;14.81;85.54;99509.53;5140186;23;20639;-88
2022/11/12 13:29:42;;;;;;;12.37;9.07;;;;;;;14.81;85.50;99512.16;5144792;23;20545;-88
2022/11/12 13:32:33;;;;;;;9.63;8.60;;;;;;;14.82;85.50;99516.47;5139734;23;20570;-88